Terminal Aerodrome Forecast
Issued by NWS

Home | Current Version | Previous Version | Text Only | Print | Product List | Glossary On
Versions: 1 2 3 4 5 6 7 8 9 10 11 12 13 14 15 16 17 18 19 20 21 22 23 24 25
892
FTUS43 KGRR 102104 AAB
TAFLAN
TAF AMD
KLAN 102104Z 1021/1118 25008KT 6SM -SHSN OVC050
     FM110600 23005KT 2SM -SHSN OVC015
     FM111000 16006KT 1 1/2SM -SN OVC009
     FM111400 15009KT 1SM -SN BR OVC007=

USA.gov is the U.S. government's official web portal to all federal, state and local government web resources and services.